Super Devoluy (05) - D

Date : 30/08/2014
Distance : 6,440 km

Place Nom Licence Catégorie Club Temps min/km CN à J-60 Points Différence Nouveau CN
1 IMBERT Adeline 6522 D35 2606RA 0:55:17 8'35 5930 5960 +30 6052
2 VANNIER Valerie 2091 D35 7703IF 0:56:00 8'41 5688 5884 +196 5388
3 FAIVRE Julie 5310 D35 2610RA 0:56:02 8'42 4836 5880 +1044 5472
4 COUPAT Magali 148 D35 2606RA 0:56:40 8'47 5018 5815 +797 5251
5 KOTECKA Michaela 14628 D35 5906NO 0:58:38 9'06 5620 5128
6 DUCHENE Elodie 2482 D21 3810RA 0:59:05 9'10 5245 5577 +332 5478
7 MACHEMIN Marie 28270 D21 1905LI 0:59:13 9'11 4529 5564 +1035 5095
8 BOVERO Severine 17002 D35 4201RA 1:00:29 9'23 5337 5448 +111 4986
9 IZARD Aurelie 8067 D21 8105MP 1:00:34 9'24 5001 5440 +439 5290
10 DESRUMAUX Marie 14227 D35 5906NO 1:00:56 9'27 5276 5408 +132 5278
11 CHATELON Lucile 1557 D35 4203RA 1:02:29 9'42 5847 5273 -574 5814
12 FENEUIL Blandine 9723 D21 8106MP 1:03:36 9'52 5158 5181 +23 5156
13 ESPI Pauline 25314 D21 5116CA 1:04:18 9'59 4752 5124 +372 4845
14 CAVALIER Héloïse 22600 D21 7512IF 1:04:19 9'59 5322 5123 -199 5265
15 RICARD BORCHORST Clarissa 14676 D21 9502IF 1:05:07 10'06 4224 5060 +836 4588
16 PAULY Marianne 21040 D35 1705PC 1:05:22 10'09 4811 5041 +230 4613
17 PARIGOT Virginie 2722 D35 2109BO 1:05:43 10'12 5028 5014 -14 5085
18 MONTERRAT Amandine 8359 D21 4203RA 1:06:29 10'19 5047 4956 -91 5278
19 MANGUERO Laure 2355 D21 2604RA 1:06:52 10'22 3507 4928 +1421 4469
20 GAUDRILLIER Laurence 19565 D35 7305RA 1:06:53 10'23 3903 4926 +1023 4239
21 RAUTURIER Camille 4183 D21 7807IF 1:06:55 10'23 5433 4924 -509 5548
22 ROULLAUD-ESTANCO Lucille 23865 D21 3408LR 1:07:11 10'25 4463 4904 +441 4844
23 GERBEAUX Nathanaëlle 18312 D21 7807IF 1:08:02 10'33 5552 4843 -709 4950
24 DESRUMAUX Celine 15795 D35 5906NO 1:08:07 10'34 4974 4837 -137 4939
25 HUEBER Diane 5639 D21 6806AL 1:08:20 10'36 5350 4822 -528 5385
26 BRUNDU-LEMAIRE Sarah 18059 D35 7807IF 1:08:39 10'39 4705 4800 +95 4699
27 ROULLEAUX Noemie 8922 D20 9105IF 1:09:39 10'48 5074 4731 -343 5322
28 CONIEL Lise 14886 D20 5604BR 1:10:27 10'56 4935 4677 -258 4765
29 KIRILOV Aurélie 20629 D21 5906NO 1:10:40 10'58 4771 4663 -108 4802
30 COULON Fanny 7071 D21 3408LR 1:10:48 10'59 4065 4654 +589 4314
31 VASSY Margaux 8514 D21 4203RA 1:10:48 10'59 5192 4654 -538 5572
32 DEBOCQMAINE Agnes 11476 D35 7707IF 1:11:08 11'02 4681 4632 -49 4806
33 TINCHANT Estelle 745 D35 2517FC 1:11:27 11'05 5028 4612 -416 5155
34 DUCHASSIN Audrey 12880 D35 8105MP 1:12:12 11'12 4196 4564 +368 4246
35 MOREL Helene 9897 D21 5407LO 1:13:59 11'29 4910 4454 -456 4818
36 FONTAINE Helise 22962 D20 5907NO 1:14:58 11'38 4870 4395 -475 4870
37 CHOMETTE Aurore 19532 D21 4201RA 1:15:51 11'46 4767 4344 -423 4963
38 ENARD Sandrine 2665 D21 2101BO 1:16:30 11'52 0 4307 4135
39 LOUVET Eloise 912 D21 7707IF 1:16:32 11'53 4172 4305 +133 4199
40 VERCASSON Rachel 14527 D21 2604RA 1:17:32 12'02 3861 4250 +389 4109
41 MANIERE Marie 17067 D21 6008PI 1:17:59 12'06 4651 4225 -426 4809
42 RUIZ Celine 14776 D35 8105MP 1:18:24 12'10 4770 4203 -567 4773
43 COCTEAU Vanessa 12032 D21 2508FC 1:18:40 12'12 5072 4189 -883 5123
44 RORA BONNEAU Mathilde 4373 D21 7719IF 1:19:05 12'16 4661 4166 -495 4574
45 GUILLOU Virginie 22241 D35 5402LO 1:20:00 12'25 4371 4119 -252 4379
46 VINCENT Marilyne 21023 D35 3913FC 1:20:03 12'25 3485 4116 +631 3748
47 ROULLEAUX Maeva 8921 D21 9105IF 1:22:26 12'48 4534 3997 -537 4571
48 HAYER Cécilia 26528 D21 6709AL 1:22:53 12'52 3345 3975 +630 3618
49 RIOU BENARD Clara 26494 D20 8311AZ 1:23:03 12'53 3921 3967 +46 3918
50 RIVOLLIER Isaline 22451 D20 4201RA 1:23:18 12'56 4565 3956 -609 4449
51 VAN TORHOUDT Adèle 26885 D20 1403NM 1:23:54 13'01 3373 3927 +554 3742
52 NIGGLI Daria 21017 D35 3913FC 1:24:18 13'05 4529 3909 -620 4445
53 BOUCHAN Estelle 27795 D20 2517FC 1:24:33 13'07 4539 3897 -642 4569
54 PLAGNOL Fabienne 25582 D35 2605RA 1:25:50 13'19 2939 3839 +900 3589
55 DEJARDIN Emilie 10863 D20 3811RA 1:26:16 13'23 3209 3820 +611 3677
56 EDIAR Helene 14651 D35 9109IF 1:26:27 13'25 3920 3811 -109 3862
57 GERARD Lea 12284 D21 8807LO 1:26:36 13'26 0 3805 3993
58 LEFEVRE Magali 2696 D35 2105BO 1:27:34 13'35 4318 3763 -555 4467
59 DONET Elodie 26938 D20 2109BO 1:28:03 13'40 3967 3742 -225 3967
60 HAGARD Virginie 7048 D21 5907NO 1:29:37 13'54 3297 3677 +380 3569
61 MOREL Eugenie 15479 D20 5407LO 1:30:39 14'04 4909 3635 -1274 4966
62 CHARDOT Julia 19345 D20 7807IF 1:31:36 14'13 4498 3597 -901 4449
63 MARCUZZI Cécile 28161 D20 6008PI 1:31:38 14'13 3439 3596 +157 3778
64 FACHAUX Angélique 17577 D21 5907NO 1:31:57 14'16 4004 3583 -421 4229
65 CREUSOT pauline 29593 D20 6008PI 1:33:14 14'28 3011 3534 +523 3591
66 BRIERE Axelle 24514 D35 2704NM 1:33:26 14'30 4073 3527 -546 4135
67 DEMESSANCE Annaik 25595 D20 6008PI 1:34:29 14'40 3638 3487 -151 3614
68 PARIZOTTO Valérie 26637 D21 4705AQ 1:34:49 14'43 3438 3475 +37 3541
69 DE MINIAC Gwenola 14718 D35 3408LR 1:38:11 15'14 4051 3356 -695 3958
70 CHAGNON Emilie 20867 D35 2407AQ 1:39:20 15'25 3401 3317 -84 3446
71 POURRE Marion 10077 D20 2508FC 1:40:04 15'32 3886 3293 -593 3973
72 MAIGRE Rose Marie 27367 D35 4709AQ 1:42:48 15'57 3222 3205 -17 3316
73 MANOPOULOS Anne 26515 D35 1303PR 1:43:00 15'59 3031 3199 +168 3257
74 RAVENEL Manon 10903 D21 6804AL 1:44:05 16'09 3501 3166 -335 3545
75 DODIER Orianne 10485 D20 8405PR 1:45:27 16'22 3125 4111
76 JOURDE Coralie 28614 D35 6315AU 1:47:13 16'38 3244 3073 -171 3718
77 KUCINSKA Laura 29171 D35 9502IF 1:47:33 16'42 3513 3064 -449 3774
78 NORMAND SECOND Maéva 27260 D35 7305RA 1:48:17 16'48 3043 2732
79 MATHIEU Angélique 26227 D21 7722IF 1:51:07 17'15 3836 2965 -871 3781
80 PEAN Anne Sophie 16744 D21 3408LR 1:52:01 17'23 3063 2942 -121 3225
81 MEMBREY Aurore 19740 D21 2508FC 1:52:43 17'30 3907 2923 -984 4257
82 COLLETTE Céline 24924 D35 4601MP 1:54:40 17'48 3675 2874 -801 3605
83 ROUBOT Anaïs 25182 D20 2109BO 2:03:55 19'14 2500 2659 +159 2650
84 PIERRE-KERANGUEVEN Sarah 23006 D35 4504CE 2:05:27 19'28 2163 2627 +464 3075
85 HARNIST Juliette 25420 D35 6803AL 2:08:18 19'55 3854 2568 -1286 3741
86 EININGER Celine 26071 D35 0615AZ 2:11:04 20'21 3173 2514 -659 3173
87 DOMBROVSKY Florence 25178 D35 6499AQ 2:14:31 20'53 2913 2450 -463 2968
88 LAGRANGE Florence 16189 D35 7716IF 2:26:09 22'41 2217 2255 +38 2472
89 CHICHERY Séverine 26114 D35 8106MP 2:28:11 23'00 2842 2224 -618 2884
90 CHESNEL Mélanie 27861 D20 1403NM 2:34:57 24'03 2461 2126 -335 2462
91 JUNG Chloé 22680 D35 7807IF 3:06:10 28'54 1346 1770 +424 2831
DUPLESSIS Noémie 24302 D21 5116CA pm None 3423 0 3417
RAVENEL Fanny 10904 D21 6804AL pm None 4125 0 4117
FINAS Mélanie 29480 D21 5907NO pm None 4336 0 4293
COUTANCE Marion 26100 D20 1403NM pm None 3616 0 3297
HENRIET Marie-Pierre 22393 D21 2508FC pm None 3641 0 3771